Time;durP1;ratioP1;P1;durP2;ratioP2;P2;SDS_P1;SDS_P2;PMS_P1;PMS_P2;Temp;Humidity;BMP_temperature;BMP_pressure;BME280_temperature;BME280_humidity;BME280_pressure;Samples;Min_cycle;Max_cycle;Signal;HPM_P1;HPM_P2
2022/08/28 00:00:19;;;;;;;12.15;8.75;;;;;;;;;;16886500;28;20264;-87
2022/08/28 00:08:40;;;;;;;11.77;9.07;;;;;;;;;;16885183;29;20189;-87
2022/08/28 00:17:00;;;;;;;14.48;9.20;;;;;;;;;;16884687;29;20656;-87
2022/08/28 00:25:23;;;;;;;13.57;9.27;;;;;;;;;;16884431;29;20188;-87
2022/08/28 00:33:43;;;;;;;14.27;9.30;;;;;;;;;;16884020;29;20713;-87
2022/08/28 00:42:04;;;;;;;13.60;8.77;;;;;;;;;;16884680;28;20208;-87
2022/08/28 00:52:04;;;;;;;12.73;9.20;;;;;;;;;;16884382;28;20201;-87
2022/08/28 00:59:14;;;;;;;13.87;8.90;;;;;;;;;;16884401;28;20574;-87
2022/08/28 01:07:37;;;;;;;13.77;8.97;;;;;;;;;;16887642;29;20204;-87
2022/08/28 01:15:59;;;;;;;13.40;8.80;;;;;;;;;;16894382;29;20291;-86
2022/08/28 01:24:20;;;;;;;10.27;8.83;;;;;;;;;;16893149;29;20264;-86
2022/08/28 01:32:42;;;;;;;13.60;9.23;;;;;;;;;;16893763;28;20213;-86
2022/08/28 01:41:03;;;;;;;12.87;9.83;;;;;;;;;;16892293;28;20486;-86
2022/08/28 01:49:24;;;;;;;16.93;8.47;;;;;;;;;;16893953;29;20259;-86
2022/08/28 01:57:45;;;;;;;13.60;8.70;;;;;;;;;;16892309;28;20292;-86
2022/08/28 02:06:05;;;;;;;11.27;8.67;;;;;;;;;;16891057;29;20181;-86
2022/08/28 02:14:26;;;;;;;11.57;9.03;;;;;;;;;;16891564;29;20209;-86
2022/08/28 02:22:46;;;;;;;14.20;8.90;;;;;;;;;;16891685;28;20170;-88
2022/08/28 02:31:08;;;;;;;12.07;9.90;;;;;;;;;;16890710;28;20201;-88
2022/08/28 02:39:28;;;;;;;12.70;9.67;;;;;;;;;;16891254;29;20647;-88
2022/08/28 02:47:50;;;;;;;12.93;9.13;;;;;;;;;;16888943;28;20202;-86
2022/08/28 02:56:11;;;;;;;12.47;9.47;;;;;;;;;;16889458;28;20689;-87
2022/08/28 03:04:31;;;;;;;12.03;10.37;;;;;;;;;;16889159;28;20184;-87
2022/08/28 03:12:52;;;;;;;13.40;9.43;;;;;;;;;;16888641;29;20205;-88
2022/08/28 03:21:12;;;;;;;10.30;8.97;;;;;;;;;;16888326;28;20189;-87
2022/08/28 03:29:32;;;;;;;11.33;9.47;;;;;;;;;;16885948;28;20193;-88
2022/08/28 03:37:53;;;;;;;12.27;9.77;;;;;;;;;;16887485;28;20187;-87
2022/08/28 03:46:17;;;;;;;14.43;9.80;;;;;;;;;;16888015;29;20637;-87
2022/08/28 03:54:37;;;;;;;16.20;10.30;;;;;;;;;;16886902;28;20271;-87
2022/08/28 04:02:57;;;;;;;14.40;9.70;;;;;;;;;;16886364;28;20227;-86
2022/08/28 04:11:18;;;;;;;15.30;10.37;;;;;;;;;;16885973;28;20481;-87
2022/08/28 04:19:38;;;;;;;14.67;10.00;;;;;;;;;;16885721;29;20188;-87
2022/08/28 04:27:59;;;;;;;15.48;11.25;;;;;;;;;;16886436;29;20181;-87
2022/08/28 04:36:20;;;;;;;11.82;10.50;;;;;;;;;;16885624;29;20217;-88
2022/08/28 04:44:41;;;;;;;16.40;11.43;;;;;;;;;;16891710;29;20213;-88
2022/08/28 04:53:01;;;;;;;14.63;10.95;;;;;;;;;;16895507;29;20224;-88
2022/08/28 05:01:25;;;;;;;150.45;139.15;;;;;;;;;;16894042;28;20240;-88
2022/08/28 05:09:46;;;;;;;16.30;13.73;;;;;;;;;;16894863;29;20217;-89
2022/08/28 05:18:07;;;;;;;22.08;19.77;;;;;;;;;;16893431;29;20672;-88
2022/08/28 05:26:27;;;;;;;13.97;9.27;;;;;;;;;;16894034;28;20174;-88
2022/08/28 05:34:47;;;;;;;11.35;9.32;;;;;;;;;;16894866;29;20461;-88
2022/08/28 05:43:09;;;;;;;12.07;9.45;;;;;;;;;;16893166;29;20212;-88
2022/08/28 05:51:30;;;;;;;12.23;9.77;;;;;;;;;;16890903;29;20209;-89
2022/08/28 05:59:50;;;;;;;12.32;9.80;;;;;;;;;;16892758;28;20229;-89
2022/08/28 06:08:11;;;;;;;15.32;14.23;;;;;;;;;;16891957;29;20189;-89
2022/08/28 06:16:31;;;;;;;33.50;31.33;;;;;;;;;;16890512;29;20245;-89
2022/08/28 06:24:52;;;;;;;25.67;23.85;;;;;;;;;;16891912;29;20217;-86
2022/08/28 06:33:15;;;;;;;31.20;29.23;;;;;;;;;;16890718;29;20205;-86
2022/08/28 06:41:39;;;;;;;53.97;50.70;;;;;;;;;;16891267;29;20544;-86
2022/08/28 06:50:00;;;;;;;95.25;89.07;;;;;;;;;;16889435;29;20286;-85
2022/08/28 06:58:20;;;;;;;104.07;97.28;;;;;;;;;;16888149;29;20697;-85
2022/08/28 07:06:44;;;;;;;143.13;132.77;;;;;;;;;;16887967;29;20308;-85
2022/08/28 07:15:04;;;;;;;204.68;188.25;;;;;;;;;;16888686;29;20208;-84
2022/08/28 07:23:29;;;;;;;266.30;243.20;;;;;;;;;;16888340;28;20173;-86
2022/08/28 07:31:50;;;;;;;392.90;355.35;;;;;;;;;;16886796;29;20209;-85
2022/08/28 07:40:11;;;;;;;783.10;706.70;;;;;;;;;;16888107;29;20247;-85
2022/08/28 07:48:32;;;;;;;437.60;398.90;;;;;;;;;;16887006;29;20205;-85
2022/08/28 07:56:53;;;;;;;198.80;183.07;;;;;;;;;;16886802;28;20324;-85
2022/08/28 08:05:13;;;;;;;318.70;290.90;;;;;;;;;;16885393;28;20643;-84
2022/08/28 08:13:34;;;;;;;53.03;49.97;;;;;;;;;;16886207;28;20209;-84
2022/08/28 08:21:55;;;;;;;31.13;29.40;;;;;;;;;;16885328;29;20169;-85
2022/08/28 08:30:15;;;;;;;15.38;14.48;;;;;;;;;;16884715;29;20201;-85
2022/08/28 08:38:36;;;;;;;16.45;15.15;;;;;;;;;;16883535;29;20638;-85
2022/08/28 08:47:15;;;;;;;16.30;15.32;;;;;;;;;;16884676;28;20211;-85
2022/08/28 08:55:42;;;;;;;9.45;8.75;;;;;;;;;;16883435;28;20236;-85
2022/08/28 09:04:02;;;;;;;198.00;182.82;;;;;;;;;;16882282;29;20193;-87
2022/08/28 09:12:27;;;;;;;71.32;66.63;;;;;;;;;;16883302;29;20658;-87
2022/08/28 09:20:51;;;;;;;44.22;41.78;;;;;;;;;;16882699;29;20264;-86
2022/08/28 09:29:16;;;;;;;34.70;32.70;;;;;;;;;;16888026;28;20272;-86
2022/08/28 09:37:36;;;;;;;104.03;98.00;;;;;;;;;;16892824;29;20209;-87
2022/08/28 09:46:03;;;;;;;82.85;78.15;;;;;;;;;;16893727;29;20549;-86
2022/08/28 09:54:35;;;;;;;92.00;86.53;;;;;;;;;;16892353;28;20244;-86
2022/08/28 10:03:02;;;;;;;80.18;75.55;;;;;;;;;;16891956;29;20174;-87
2022/08/28 10:11:36;;;;;;;255.82;235.45;;;;;;;;;;16890448;29;20201;-87
2022/08/28 10:20:02;;;;;;;43.30;40.80;;;;;;;;;;16889975;29;20219;-87
2022/08/28 10:28:34;;;;;;;7.00;5.97;;;;;;;;;;16890644;29;20173;-86
2022/08/28 10:37:01;;;;;;;8.07;5.97;;;;;;;;;;16890112;29;20723;-87
2022/08/28 10:45:22;;;;;;;8.35;5.90;;;;;;;;;;16888860;29;20208;-87
2022/08/28 10:53:46;;;;;;;7.68;5.60;;;;;;;;;;16889401;29;20236;-87
2022/08/28 11:02:08;;;;;;;7.72;6.50;;;;;;;;;;16889627;28;20241;-86
2022/08/28 11:10:31;;;;;;;9.20;6.50;;;;;;;;;;16888636;28;20604;-86
2022/08/28 11:18:55;;;;;;;9.43;6.78;;;;;;;;;;16888178;28;20619;-87
2022/08/28 11:27:33;;;;;;;6.72;6.13;;;;;;;;;;16887777;29;20177;-85
2022/08/28 11:35:53;;;;;;;9.02;6.97;;;;;;;;;;16887361;28;20248;-87
2022/08/28 11:44:22;;;;;;;7.50;6.72;;;;;;;;;;16885856;28;20669;-87
2022/08/28 11:52:50;;;;;;;6.50;5.82;;;;;;;;;;16885236;29;20212;-87
2022/08/28 12:01:11;;;;;;;10.93;6.43;;;;;;;;;;16887900;28;20279;-87
2022/08/28 12:09:48;;;;;;;7.55;6.78;;;;;;;;;;16884602;29;20200;-87
2022/08/28 12:18:08;;;;;;;7.63;6.85;;;;;;;;;;16885666;29;20217;-87
2022/08/28 12:26:31;;;;;;;7.57;6.78;;;;;;;;;;16885380;29;20286;-87
2022/08/28 12:35:04;;;;;;;8.65;7.28;;;;;;;;;;16884673;28;20217;-87
2022/08/28 12:43:30;;;;;;;8.90;8.20;;;;;;;;;;16883572;29;20215;-87
2022/08/28 12:52:05;;;;;;;10.82;9.82;;;;;;;;;;16884365;29;20213;-88
2022/08/28 13:00:28;;;;;;;109.63;101.82;;;;;;;;;;16883963;28;20275;-87
2022/08/28 13:08:48;;;;;;;29.73;27.75;;;;;;;;;;16893747;28;20176;-88
2022/08/28 13:17:09;;;;;;;59.00;55.20;;;;;;;;;;16894531;29;20243;-87
2022/08/28 13:25:32;;;;;;;12.27;7.07;;;;;;;;;;16894956;28;20178;-88
2022/08/28 13:34:26;;;;;;;8.27;7.20;;;;;;;;;;16892494;28;20205;-88
2022/08/28 13:42:46;;;;;;;8.07;7.10;;;;;;;;;;16900678;29;20213;-88
2022/08/28 13:51:08;;;;;;;12.05;7.90;;;;;;;;;;16891796;28;20208;-88
2022/08/28 13:59:29;;;;;;;7.55;6.82;;;;;;;;;;16892473;28;20300;-89
2022/08/28 14:07:49;;;;;;;7.60;6.80;;;;;;;;;;16890890;28;20213;-89
2022/08/28 14:16:11;;;;;;;7.60;6.75;;;;;;;;;;16890774;28;20210;-88
2022/08/28 14:24:32;;;;;;;8.45;6.72;;;;;;;;;;16889751;28;20169;-87
2022/08/28 14:32:52;;;;;;;7.82;6.57;;;;;;;;;;16889410;29;20267;-88
2022/08/28 14:41:13;;;;;;;7.90;7.10;;;;;;;;;;16890180;29;20236;-88
2022/08/28 14:49:34;;;;;;;7.85;7.15;;;;;;;;;;16888547;29;20197;-88
2022/08/28 14:57:54;;;;;;;8.00;7.00;;;;;;;;;;16889157;28;20244;-88
2022/08/28 15:06:14;;;;;;;8.25;7.05;;;;;;;;;;16888043;29;20177;-88
2022/08/28 15:14:35;;;;;;;8.23;7.25;;;;;;;;;;16888884;29;20232;-88
2022/08/28 15:22:56;;;;;;;10.63;7.18;;;;;;;;;;16887217;29;20179;-88
2022/08/28 15:31:17;;;;;;;8.98;7.68;;;;;;;;;;16886035;29;20287;-87
2022/08/28 15:48:26;;;;;;;9.75;8.80;;;;;;;;;;16988645;28;20201;-87
2022/08/28 15:56:47;;;;;;;9.43;8.02;;;;;;;;;;16886140;28;20287;-88
2022/08/28 16:05:08;;;;;;;9.80;7.93;;;;;;;;;;16886111;29;20220;-87
2022/08/28 16:13:28;;;;;;;8.40;7.43;;;;;;;;;;16885831;29;20205;-87
2022/08/28 16:21:49;;;;;;;8.80;8.00;;;;;;;;;;16885381;29;20543;-88
2022/08/28 16:30:10;;;;;;;9.40;8.52;;;;;;;;;;16884353;29;20188;-88
2022/08/28 16:38:30;;;;;;;9.90;8.32;;;;;;;;;;16888458;29;20453;-87
2022/08/28 16:46:51;;;;;;;10.55;8.90;;;;;;;;;;16897137;28;20207;-87
2022/08/28 16:55:12;;;;;;;10.45;8.68;;;;;;;;;;16892161;28;20237;-87
2022/08/28 17:03:32;;;;;;;8.90;8.07;;;;;;;;;;16895978;28;20181;-87
2022/08/28 17:11:52;;;;;;;9.77;8.77;;;;;;;;;;16894885;28;20291;-87
2022/08/28 17:28:52;;;;;;;10.27;7.97;;;;;;;;;;16893323;29;20245;-87
2022/08/28 17:37:12;;;;;;;9.20;8.38;;;;;;;;;;16892293;28;20653;-87
2022/08/28 17:45:33;;;;;;;8.98;7.20;;;;;;;;;;16893298;29;20680;-86
2022/08/28 17:53:53;;;;;;;8.48;7.50;;;;;;;;;;16890288;28;20205;-87
2022/08/28 18:02:15;;;;;;;8.10;7.30;;;;;;;;;;16891297;28;20240;-86
2022/08/28 18:10:36;;;;;;;9.68;7.97;;;;;;;;;;16891938;28;20201;-87
2022/08/28 18:18:59;;;;;;;9.23;8.10;;;;;;;;;;16889898;28;20185;-87
2022/08/28 18:27:20;;;;;;;8.85;7.95;;;;;;;;;;16890302;28;20633;-87
2022/08/28 18:35:42;;;;;;;8.57;7.78;;;;;;;;;;16889520;29;20202;-87
2022/08/28 18:44:03;;;;;;;9.02;8.10;;;;;;;;;;16889989;28;20199;-87
2022/08/28 18:52:24;;;;;;;10.00;8.73;;;;;;;;;;16888715;28;20672;-87
2022/08/28 19:00:44;;;;;;;9.10;7.82;;;;;;;;;;16889560;28;20233;-86
2022/08/28 19:09:05;;;;;;;7.18;6.47;;;;;;;;;;16887929;29;20748;-86
2022/08/28 19:17:26;;;;;;;8.25;7.45;;;;;;;;;;16888315;28;20233;-86
2022/08/28 19:25:47;;;;;;;7.60;6.85;;;;;;;;;;16886966;29;20317;-85
2022/08/28 19:34:10;;;;;;;7.22;6.53;;;;;;;;;;16887713;29;20209;-87
2022/08/28 19:42:30;;;;;;;8.90;8.10;;;;;;;;;;16886804;29;20201;-86
2022/08/28 19:50:59;;;;;;;10.13;8.95;;;;;;;;;;16886996;29;20236;-87
2022/08/28 19:59:19;;;;;;;10.38;8.50;;;;;;;;;;16886804;29;20270;-87
2022/08/28 20:07:40;;;;;;;10.02;8.13;;;;;;;;;;16884834;29;20197;-87
2022/08/28 20:16:03;;;;;;;89.40;84.38;;;;;;;;;;16885214;28;20217;-87
2022/08/28 20:24:24;;;;;;;8.05;7.25;;;;;;;;;;16885596;29;20173;-86
2022/08/28 20:32:44;;;;;;;11.73;10.80;;;;;;;;;;16884280;28;20220;-87
2022/08/28 20:41:08;;;;;;;57.65;54.22;;;;;;;;;;16883786;28;20244;-87
2022/08/28 20:49:29;;;;;;;8.85;7.93;;;;;;;;;;16885218;28;20205;-87
2022/08/28 20:57:49;;;;;;;8.27;7.55;;;;;;;;;;16882962;28;20242;-87
2022/08/28 21:06:10;;;;;;;8.82;8.02;;;;;;;;;;16882951;28;20190;-87
2022/08/28 21:14:30;;;;;;;7.72;6.93;;;;;;;;;;16882501;28;20267;-86
2022/08/28 21:22:50;;;;;;;8.40;7.60;;;;;;;;;;16886114;29;20201;-86
2022/08/28 21:31:12;;;;;;;8.88;7.18;;;;;;;;;;16893758;29;20206;-86
2022/08/28 21:39:33;;;;;;;7.65;6.95;;;;;;;;;;16893467;29;20185;-86
2022/08/28 21:47:53;;;;;;;8.25;7.45;;;;;;;;;;16892274;28;20197;-85
2022/08/28 21:56:16;;;;;;;9.20;8.27;;;;;;;;;;16890851;28;20327;-86
2022/08/28 22:04:36;;;;;;;9.85;8.85;;;;;;;;;;16891721;28;20177;-86
2022/08/28 22:12:57;;;;;;;9.95;9.00;;;;;;;;;;16891342;29;20669;-86
2022/08/28 22:29:59;;;;;;;11.35;9.18;;;;;;;;;;16890068;29;20177;-85
2022/08/28 22:38:21;;;;;;;11.98;9.80;;;;;;;;;;16887894;28;20204;-87
2022/08/28 22:46:41;;;;;;;9.35;8.45;;;;;;;;;;16890112;29;20270;-86
2022/08/28 22:55:02;;;;;;;12.55;9.40;;;;;;;;;;16889798;28;20241;-88
2022/08/28 23:03:23;;;;;;;9.95;8.65;;;;;;;;;;16888532;28;20173;-87
2022/08/28 23:11:43;;;;;;;9.77;8.77;;;;;;;;;;16889056;28;20197;-87
2022/08/28 23:20:06;;;;;;;10.25;9.15;;;;;;;;;;16885784;29;20181;-86
2022/08/28 23:28:26;;;;;;;10.60;9.57;;;;;;;;;;16886317;29;20224;-88
2022/08/28 23:36:47;;;;;;;11.88;9.43;;;;;;;;;;16884456;29;20201;-87
2022/08/28 23:45:08;;;;;;;13.05;10.95;;;;;;;;;;16887495;29;20292;-87
2022/08/28 23:53:28;;;;;;;13.75;11.75;;;;;;;;;;16885951;29;20673;-86
